sensor_id;sensor_type;location;lat;lon;timestamp;temperature;humidity
18884;DHT22;9574;47.282;9.640;2023-07-29T00:01:58;18.60;99.90
18884;DHT22;9574;47.282;9.640;2023-07-29T00:04:25;18.60;99.90
18884;DHT22;9574;47.282;9.640;2023-07-29T00:06:52;18.70;99.90
18884;DHT22;9574;47.282;9.640;2023-07-29T00:09:19;18.70;99.90
18884;DHT22;9574;47.282;9.640;2023-07-29T00:11:47;18.80;99.90
18884;DHT22;9574;47.282;9.640;2023-07-29T00:14:14;18.60;99.90
18884;DHT22;9574;47.282;9.640;2023-07-29T00:16:41;18.60;99.90
18884;DHT22;9574;47.282;9.640;2023-07-29T00:19:08;18.60;99.90
18884;DHT22;9574;47.282;9.640;2023-07-29T00:21:35;18.70;99.90
18884;DHT22;9574;47.282;9.640;2023-07-29T00:24:03;18.70;99.90
18884;DHT22;9574;47.282;9.640;2023-07-29T00:26:30;18.90;99.90
18884;DHT22;9574;47.282;9.640;2023-07-29T00:28:58;18.90;99.90
18884;DHT22;9574;47.282;9.640;2023-07-29T00:31:25;18.90;99.90
18884;DHT22;9574;47.282;9.640;2023-07-29T00:33:52;18.90;99.90
18884;DHT22;9574;47.282;9.640;2023-07-29T00:36:19;18.90;99.90
18884;DHT22;9574;47.282;9.640;2023-07-29T00:38:47;18.80;99.90
18884;DHT22;9574;47.282;9.640;2023-07-29T00:41:14;18.80;99.90
18884;DHT22;9574;47.282;9.640;2023-07-29T00:43:42;19.00;99.90
18884;DHT22;9574;47.282;9.640;2023-07-29T00:46:11;19.00;99.90
18884;DHT22;9574;47.282;9.640;2023-07-29T00:48:38;18.90;99.90
18884;DHT22;9574;47.282;9.640;2023-07-29T00:51:05;19.00;99.90
18884;DHT22;9574;47.282;9.640;2023-07-29T00:53:32;19.20;99.90
18884;DHT22;9574;47.282;9.640;2023-07-29T00:56:00;19.00;99.90
18884;DHT22;9574;47.282;9.640;2023-07-29T00:58:27;18.80;99.90
18884;DHT22;9574;47.282;9.640;2023-07-29T01:00:55;18.70;99.90
18884;DHT22;9574;47.282;9.640;2023-07-29T01:03:24;18.60;99.90
18884;DHT22;9574;47.282;9.640;2023-07-29T01:06:01;18.80;99.90
18884;DHT22;9574;47.282;9.640;2023-07-29T01:08:42;19.20;99.90
18884;DHT22;9574;47.282;9.640;2023-07-29T01:11:22;19.10;99.90
18884;DHT22;9574;47.282;9.640;2023-07-29T01:13:59;19.00;99.90
18884;DHT22;9574;47.282;9.640;2023-07-29T01:16:32;18.80;99.90
18884;DHT22;9574;47.282;9.640;2023-07-29T01:19:05;18.90;99.90
18884;DHT22;9574;47.282;9.640;2023-07-29T01:21:35;19.20;99.90
18884;DHT22;9574;47.282;9.640;2023-07-29T01:24:04;19.20;99.90
18884;DHT22;9574;47.282;9.640;2023-07-29T01:26:31;18.90;99.90
18884;DHT22;9574;47.282;9.640;2023-07-29T01:28:58;18.80;99.90
18884;DHT22;9574;47.282;9.640;2023-07-29T01:31:32;18.80;99.90
18884;DHT22;9574;47.282;9.640;2023-07-29T01:34:06;18.70;99.90
18884;DHT22;9574;47.282;9.640;2023-07-29T01:36:37;18.50;99.90
18884;DHT22;9574;47.282;9.640;2023-07-29T01:39:07;18.50;99.90
18884;DHT22;9574;47.282;9.640;2023-07-29T01:41:37;18.50;99.90
18884;DHT22;9574;47.282;9.640;2023-07-29T01:44:04;18.40;99.90
18884;DHT22;9574;47.282;9.640;2023-07-29T01:46:34;18.40;99.90
18884;DHT22;9574;47.282;9.640;2023-07-29T01:49:01;18.20;99.90
18884;DHT22;9574;47.282;9.640;2023-07-29T01:51:28;18.20;99.90
18884;DHT22;9574;47.282;9.640;2023-07-29T01:53:55;18.20;99.90
18884;DHT22;9574;47.282;9.640;2023-07-29T01:56:23;18.20;99.90
18884;DHT22;9574;47.282;9.640;2023-07-29T01:58:50;18.30;99.90
18884;DHT22;9574;47.282;9.640;2023-07-29T02:01:17;18.60;99.90
18884;DHT22;9574;47.282;9.640;2023-07-29T02:03:44;18.50;99.90
18884;DHT22;9574;47.282;9.640;2023-07-29T02:06:11;18.40;99.90
18884;DHT22;9574;47.282;9.640;2023-07-29T02:08:38;18.50;99.90
18884;DHT22;9574;47.282;9.640;2023-07-29T02:11:06;18.60;99.90
18884;DHT22;9574;47.282;9.640;2023-07-29T02:13:35;18.60;99.90
18884;DHT22;9574;47.282;9.640;2023-07-29T02:16:02;18.40;99.90
18884;DHT22;9574;47.282;9.640;2023-07-29T02:18:29;18.30;99.90
18884;DHT22;9574;47.282;9.640;2023-07-29T02:20:56;18.20;99.90
18884;DHT22;9574;47.282;9.640;2023-07-29T02:23:23;18.10;99.90
18884;DHT22;9574;47.282;9.640;2023-07-29T02:25:50;18.00;99.90
18884;DHT22;9574;47.282;9.640;2023-07-29T02:28:17;18.00;99.90
18884;DHT22;9574;47.282;9.640;2023-07-29T02:30:45;18.00;99.90
18884;DHT22;9574;47.282;9.640;2023-07-29T02:33:15;18.00;99.90
18884;DHT22;9574;47.282;9.640;2023-07-29T02:35:42;18.20;99.90
18884;DHT22;9574;47.282;9.640;2023-07-29T02:38:09;18.20;99.90
18884;DHT22;9574;47.282;9.640;2023-07-29T02:40:35;18.30;99.90
18884;DHT22;9574;47.282;9.640;2023-07-29T02:43:02;18.40;99.90
18884;DHT22;9574;47.282;9.640;2023-07-29T02:45:29;18.20;99.90
18884;DHT22;9574;47.282;9.640;2023-07-29T02:47:58;18.10;99.90
18884;DHT22;9574;47.282;9.640;2023-07-29T02:50:25;17.90;99.90
18884;DHT22;9574;47.282;9.640;2023-07-29T02:52:51;18.00;99.90
18884;DHT22;9574;47.282;9.640;2023-07-29T02:55:18;18.00;99.90
18884;DHT22;9574;47.282;9.640;2023-07-29T02:57:45;18.10;99.90
18884;DHT22;9574;47.282;9.640;2023-07-29T03:00:13;18.20;99.90
18884;DHT22;9574;47.282;9.640;2023-07-29T03:02:40;18.10;99.90
18884;DHT22;9574;47.282;9.640;2023-07-29T03:05:09;18.20;99.90
18884;DHT22;9574;47.282;9.640;2023-07-29T03:07:36;18.20;99.90
18884;DHT22;9574;47.282;9.640;2023-07-29T03:10:03;18.20;99.90
18884;DHT22;9574;47.282;9.640;2023-07-29T03:12:31;18.10;99.90
18884;DHT22;9574;47.282;9.640;2023-07-29T03:14:58;18.00;99.90
18884;DHT22;9574;47.282;9.640;2023-07-29T03:17:26;17.90;99.90
18884;DHT22;9574;47.282;9.640;2023-07-29T03:19:53;17.80;99.90
18884;DHT22;9574;47.282;9.640;2023-07-29T03:22:22;17.70;99.90
18884;DHT22;9574;47.282;9.640;2023-07-29T03:24:48;17.70;99.90
18884;DHT22;9574;47.282;9.640;2023-07-29T03:27:15;17.70;99.90
18884;DHT22;9574;47.282;9.640;2023-07-29T03:29:42;17.60;99.90
18884;DHT22;9574;47.282;9.640;2023-07-29T03:32:10;17.60;99.90
18884;DHT22;9574;47.282;9.640;2023-07-29T03:34:37;17.60;99.90
18884;DHT22;9574;47.282;9.640;2023-07-29T03:37:06;17.60;99.90
18884;DHT22;9574;47.282;9.640;2023-07-29T03:39:34;17.60;99.90
18884;DHT22;9574;47.282;9.640;2023-07-29T03:42:01;17.70;99.90
18884;DHT22;9574;47.282;9.640;2023-07-29T03:44:28;17.90;99.90
18884;DHT22;9574;47.282;9.640;2023-07-29T03:46:56;18.10;99.90
18884;DHT22;9574;47.282;9.640;2023-07-29T03:49:23;18.10;99.90
18884;DHT22;9574;47.282;9.640;2023-07-29T03:51:50;18.00;99.90
18884;DHT22;9574;47.282;9.640;2023-07-29T03:54:17;17.90;99.90
18884;DHT22;9574;47.282;9.640;2023-07-29T03:56:45;17.80;99.90
18884;DHT22;9574;47.282;9.640;2023-07-29T03:59:12;17.80;99.90
18884;DHT22;9574;47.282;9.640;2023-07-29T04:01:39;17.80;99.90
18884;DHT22;9574;47.282;9.640;2023-07-29T04:04:06;17.80;99.90
18884;DHT22;9574;47.282;9.640;2023-07-29T04:06:33;17.90;99.90
18884;DHT22;9574;47.282;9.640;2023-07-29T04:09:00;18.20;99.90
18884;DHT22;9574;47.282;9.640;2023-07-29T04:11:28;18.50;99.90
18884;DHT22;9574;47.282;9.640;2023-07-29T04:13:56;18.40;99.90
18884;DHT22;9574;47.282;9.640;2023-07-29T04:16:23;18.10;99.90
18884;DHT22;9574;47.282;9.640;2023-07-29T04:18:50;17.90;99.90
18884;DHT22;9574;47.282;9.640;2023-07-29T04:21:17;17.50;99.90
18884;DHT22;9574;47.282;9.640;2023-07-29T04:23:44;17.30;99.90
18884;DHT22;9574;47.282;9.640;2023-07-29T04:26:11;17.20;99.90
18884;DHT22;9574;47.282;9.640;2023-07-29T04:28:38;17.30;99.90
18884;DHT22;9574;47.282;9.640;2023-07-29T04:31:06;17.60;99.90
18884;DHT22;9574;47.282;9.640;2023-07-29T04:33:33;17.60;99.90
18884;DHT22;9574;47.282;9.640;2023-07-29T04:36:00;17.70;99.90
18884;DHT22;9574;47.282;9.640;2023-07-29T04:38:32;17.80;99.90
18884;DHT22;9574;47.282;9.640;2023-07-29T04:40:59;17.90;99.90
18884;DHT22;9574;47.282;9.640;2023-07-29T04:43:28;18.00;99.90
18884;DHT22;9574;47.282;9.640;2023-07-29T04:45:55;18.10;99.90
18884;DHT22;9574;47.282;9.640;2023-07-29T04:48:23;18.10;99.90
18884;DHT22;9574;47.282;9.640;2023-07-29T04:50:50;18.10;99.90
18884;DHT22;9574;47.282;9.640;2023-07-29T04:53:17;18.10;99.90
18884;DHT22;9574;47.282;9.640;2023-07-29T04:55:44;18.00;99.90
18884;DHT22;9574;47.282;9.640;2023-07-29T04:58:11;17.80;99.90
18884;DHT22;9574;47.282;9.640;2023-07-29T05:00:38;17.50;99.90
18884;DHT22;9574;47.282;9.640;2023-07-29T05:03:05;17.40;99.90
18884;DHT22;9574;47.282;9.640;2023-07-29T05:05:33;17.30;99.90
18884;DHT22;9574;47.282;9.640;2023-07-29T05:08:00;17.20;99.90
18884;DHT22;9574;47.282;9.640;2023-07-29T05:10:27;17.30;99.90
18884;DHT22;9574;47.282;9.640;2023-07-29T05:12:54;17.40;99.90
18884;DHT22;9574;47.282;9.640;2023-07-29T05:15:21;17.40;99.90
18884;DHT22;9574;47.282;9.640;2023-07-29T05:17:48;17.50;99.90
18884;DHT22;9574;47.282;9.640;2023-07-29T05:20:15;17.60;99.90
18884;DHT22;9574;47.282;9.640;2023-07-29T05:22:43;17.80;99.90
18884;DHT22;9574;47.282;9.640;2023-07-29T05:25:10;18.10;99.90
18884;DHT22;9574;47.282;9.640;2023-07-29T05:27:38;18.40;99.90
18884;DHT22;9574;47.282;9.640;2023-07-29T05:30:06;18.50;99.90
18884;DHT22;9574;47.282;9.640;2023-07-29T05:32:33;18.40;99.90
18884;DHT22;9574;47.282;9.640;2023-07-29T05:35:00;18.40;99.90
18884;DHT22;9574;47.282;9.640;2023-07-29T05:37:27;18.40;99.90
18884;DHT22;9574;47.282;9.640;2023-07-29T05:39:55;18.50;99.90
18884;DHT22;9574;47.282;9.640;2023-07-29T05:42:22;18.60;99.90
18884;DHT22;9574;47.282;9.640;2023-07-29T05:44:49;18.70;99.90
18884;DHT22;9574;47.282;9.640;2023-07-29T05:47:16;18.70;99.90
18884;DHT22;9574;47.282;9.640;2023-07-29T05:49:43;18.50;99.90
18884;DHT22;9574;47.282;9.640;2023-07-29T05:52:10;18.30;99.90
18884;DHT22;9574;47.282;9.640;2023-07-29T05:54:37;18.30;99.90
18884;DHT22;9574;47.282;9.640;2023-07-29T05:57:06;18.20;99.90
18884;DHT22;9574;47.282;9.640;2023-07-29T05:59:33;18.30;99.90
18884;DHT22;9574;47.282;9.640;2023-07-29T06:02:00;18.50;99.90
18884;DHT22;9574;47.282;9.640;2023-07-29T06:04:27;18.70;99.90
18884;DHT22;9574;47.282;9.640;2023-07-29T06:06:54;19.00;99.90
18884;DHT22;9574;47.282;9.640;2023-07-29T06:09:21;19.00;99.90
18884;DHT22;9574;47.282;9.640;2023-07-29T06:11:48;19.10;99.90
18884;DHT22;9574;47.282;9.640;2023-07-29T06:14:17;19.20;99.90
18884;DHT22;9574;47.282;9.640;2023-07-29T06:16:43;19.20;99.90
18884;DHT22;9574;47.282;9.640;2023-07-29T06:19:10;19.20;99.90
18884;DHT22;9574;47.282;9.640;2023-07-29T06:21:38;19.00;99.90
18884;DHT22;9574;47.282;9.640;2023-07-29T06:24:05;18.80;99.90
18884;DHT22;9574;47.282;9.640;2023-07-29T06:26:32;18.80;99.90
18884;DHT22;9574;47.282;9.640;2023-07-29T06:28:59;18.70;99.90
18884;DHT22;9574;47.282;9.640;2023-07-29T06:31:28;18.50;99.90
18884;DHT22;9574;47.282;9.640;2023-07-29T06:33:55;18.50;99.90
18884;DHT22;9574;47.282;9.640;2023-07-29T06:36:22;18.70;99.90
18884;DHT22;9574;47.282;9.640;2023-07-29T06:38:49;19.00;99.90
18884;DHT22;9574;47.282;9.640;2023-07-29T06:41:15;19.20;99.90
18884;DHT22;9574;47.282;9.640;2023-07-29T06:43:42;19.10;99.90
18884;DHT22;9574;47.282;9.640;2023-07-29T06:46:09;19.00;99.90
18884;DHT22;9574;47.282;9.640;2023-07-29T06:48:38;18.80;99.90
18884;DHT22;9574;47.282;9.640;2023-07-29T06:51:05;18.70;99.90
18884;DHT22;9574;47.282;9.640;2023-07-29T06:53:32;18.60;99.90
18884;DHT22;9574;47.282;9.640;2023-07-29T06:55:59;18.40;99.90
18884;DHT22;9574;47.282;9.640;2023-07-29T06:58:26;18.30;99.90
18884;DHT22;9574;47.282;9.640;2023-07-29T07:00:53;18.30;99.90
18884;DHT22;9574;47.282;9.640;2023-07-29T07:03:20;18.30;99.90
18884;DHT22;9574;47.282;9.640;2023-07-29T07:05:48;18.50;99.90
18884;DHT22;9574;47.282;9.640;2023-07-29T07:08:16;18.70;99.90
18884;DHT22;9574;47.282;9.640;2023-07-29T07:10:43;18.90;99.90
18884;DHT22;9574;47.282;9.640;2023-07-29T07:13:10;19.00;99.90
18884;DHT22;9574;47.282;9.640;2023-07-29T07:15:37;19.20;99.90
18884;DHT22;9574;47.282;9.640;2023-07-29T07:18:04;19.40;99.90
18884;DHT22;9574;47.282;9.640;2023-07-29T07:20:31;19.60;99.90
18884;DHT22;9574;47.282;9.640;2023-07-29T07:22:59;19.80;99.90
18884;DHT22;9574;47.282;9.640;2023-07-29T07:25:26;20.00;99.90
18884;DHT22;9574;47.282;9.640;2023-07-29T07:27:53;20.00;99.90
18884;DHT22;9574;47.282;9.640;2023-07-29T07:30:20;20.10;99.90
18884;DHT22;9574;47.282;9.640;2023-07-29T07:32:47;20.40;99.90
18884;DHT22;9574;47.282;9.640;2023-07-29T07:35:15;20.70;99.90
18884;DHT22;9574;47.282;9.640;2023-07-29T07:37:42;21.00;99.90
18884;DHT22;9574;47.282;9.640;2023-07-29T07:40:11;21.20;99.90
18884;DHT22;9574;47.282;9.640;2023-07-29T07:42:38;21.30;99.90
18884;DHT22;9574;47.282;9.640;2023-07-29T07:45:06;21.50;99.90
18884;DHT22;9574;47.282;9.640;2023-07-29T07:47:33;21.70;99.90
18884;DHT22;9574;47.282;9.640;2023-07-29T07:50:00;21.80;99.90
18884;DHT22;9574;47.282;9.640;2023-07-29T07:52:28;21.90;99.90
18884;DHT22;9574;47.282;9.640;2023-07-29T07:54:55;21.70;99.90
18884;DHT22;9574;47.282;9.640;2023-07-29T07:57:23;21.50;99.90
18884;DHT22;9574;47.282;9.640;2023-07-29T07:59:50;21.50;99.90
18884;DHT22;9574;47.282;9.640;2023-07-29T08:02:18;21.40;99.90
18884;DHT22;9574;47.282;9.640;2023-07-29T08:04:46;21.20;99.90
18884;DHT22;9574;47.282;9.640;2023-07-29T08:07:13;21.00;99.90
18884;DHT22;9574;47.282;9.640;2023-07-29T08:09:40;21.00;99.90
18884;DHT22;9574;47.282;9.640;2023-07-29T08:12:07;21.00;99.90
18884;DHT22;9574;47.282;9.640;2023-07-29T08:14:35;21.20;99.90
18884;DHT22;9574;47.282;9.640;2023-07-29T08:17:03;21.60;99.90
18884;DHT22;9574;47.282;9.640;2023-07-29T08:19:30;22.00;99.90
18884;DHT22;9574;47.282;9.640;2023-07-29T08:24:23;22.50;99.90
18884;DHT22;9574;47.282;9.640;2023-07-29T08:26:50;22.50;99.90
18884;DHT22;9574;47.282;9.640;2023-07-29T08:29:17;22.40;99.90
18884;DHT22;9574;47.282;9.640;2023-07-29T08:31:46;22.40;99.90
18884;DHT22;9574;47.282;9.640;2023-07-29T08:34:13;22.30;99.90
18884;DHT22;9574;47.282;9.640;2023-07-29T08:36:40;22.30;99.90
18884;DHT22;9574;47.282;9.640;2023-07-29T08:39:06;22.30;99.90
18884;DHT22;9574;47.282;9.640;2023-07-29T08:41:37;22.30;99.90
18884;DHT22;9574;47.282;9.640;2023-07-29T08:44:12;22.30;99.90
18884;DHT22;9574;47.282;9.640;2023-07-29T08:46:40;22.30;99.90
18884;DHT22;9574;47.282;9.640;2023-07-29T08:49:08;22.40;99.90
18884;DHT22;9574;47.282;9.640;2023-07-29T08:51:40;22.50;99.90
18884;DHT22;9574;47.282;9.640;2023-07-29T08:54:09;22.70;99.90
18884;DHT22;9574;47.282;9.640;2023-07-29T08:56:37;22.90;99.90
18884;DHT22;9574;47.282;9.640;2023-07-29T08:59:04;23.00;99.90
18884;DHT22;9574;47.282;9.640;2023-07-29T09:01:32;23.10;99.90
18884;DHT22;9574;47.282;9.640;2023-07-29T09:03:59;23.10;99.90
18884;DHT22;9574;47.282;9.640;2023-07-29T09:06:28;23.00;99.90
18884;DHT22;9574;47.282;9.640;2023-07-29T09:08:55;23.00;99.90
18884;DHT22;9574;47.282;9.640;2023-07-29T09:11:22;22.90;99.90
18884;DHT22;9574;47.282;9.640;2023-07-29T09:13:49;22.80;99.90
18884;DHT22;9574;47.282;9.640;2023-07-29T09:16:16;22.80;99.90
18884;DHT22;9574;47.282;9.640;2023-07-29T09:18:43;22.80;99.90
18884;DHT22;9574;47.282;9.640;2023-07-29T09:21:10;22.80;99.90
18884;DHT22;9574;47.282;9.640;2023-07-29T09:23:42;22.90;99.90
18884;DHT22;9574;47.282;9.640;2023-07-29T09:26:10;22.90;99.90
18884;DHT22;9574;47.282;9.640;2023-07-29T09:28:38;23.00;99.90
18884;DHT22;9574;47.282;9.640;2023-07-29T09:31:05;23.20;99.90
18884;DHT22;9574;47.282;9.640;2023-07-29T09:33:34;23.50;99.90
18884;DHT22;9574;47.282;9.640;2023-07-29T09:36:03;24.00;99.90
18884;DHT22;9574;47.282;9.640;2023-07-29T09:38:30;24.30;99.90
18884;DHT22;9574;47.282;9.640;2023-07-29T09:40:58;24.70;99.90
18884;DHT22;9574;47.282;9.640;2023-07-29T09:43:28;24.80;99.90
18884;DHT22;9574;47.282;9.640;2023-07-29T09:45:56;24.80;99.90
18884;DHT22;9574;47.282;9.640;2023-07-29T09:48:26;24.70;99.90
18884;DHT22;9574;47.282;9.640;2023-07-29T09:50:54;24.60;99.90
18884;DHT22;9574;47.282;9.640;2023-07-29T09:53:21;24.40;99.90
18884;DHT22;9574;47.282;9.640;2023-07-29T09:55:48;24.40;99.90
18884;DHT22;9574;47.282;9.640;2023-07-29T09:58:19;24.30;99.90
18884;DHT22;9574;47.282;9.640;2023-07-29T10:00:52;24.20;99.90
18884;DHT22;9574;47.282;9.640;2023-07-29T10:03:20;24.10;99.90
18884;DHT22;9574;47.282;9.640;2023-07-29T10:05:48;24.00;99.90
18884;DHT22;9574;47.282;9.640;2023-07-29T10:08:16;23.90;99.90
18884;DHT22;9574;47.282;9.640;2023-07-29T10:10:45;23.70;99.90
18884;DHT22;9574;47.282;9.640;2023-07-29T10:13:12;23.60;99.90
18884;DHT22;9574;47.282;9.640;2023-07-29T10:15:41;24.00;99.90
18884;DHT22;9574;47.282;9.640;2023-07-29T10:18:08;24.60;99.90
18884;DHT22;9574;47.282;9.640;2023-07-29T10:20:35;25.00;99.90
18884;DHT22;9574;47.282;9.640;2023-07-29T10:23:05;25.50;99.90
18884;DHT22;9574;47.282;9.640;2023-07-29T10:25:37;26.00;99.90
18884;DHT22;9574;47.282;9.640;2023-07-29T10:28:06;26.10;99.90
18884;DHT22;9574;47.282;9.640;2023-07-29T10:30:33;26.30;99.90
18884;DHT22;9574;47.282;9.640;2023-07-29T10:33:04;26.60;99.90
18884;DHT22;9574;47.282;9.640;2023-07-29T10:35:32;27.00;99.90
18884;DHT22;9574;47.282;9.640;2023-07-29T10:38:00;27.10;99.90
18884;DHT22;9574;47.282;9.640;2023-07-29T10:40:43;27.00;99.90
18884;DHT22;9574;47.282;9.640;2023-07-29T10:43:12;27.20;99.90
18884;DHT22;9574;47.282;9.640;2023-07-29T10:45:41;27.10;99.90
18884;DHT22;9574;47.282;9.640;2023-07-29T10:48:12;27.10;99.90
18884;DHT22;9574;47.282;9.640;2023-07-29T10:50:39;27.20;99.90
18884;DHT22;9574;47.282;9.640;2023-07-29T10:53:06;27.30;99.90
18884;DHT22;9574;47.282;9.640;2023-07-29T10:55:35;27.10;99.90
18884;DHT22;9574;47.282;9.640;2023-07-29T10:58:16;26.90;99.90
18884;DHT22;9574;47.282;9.640;2023-07-29T11:00:44;26.70;99.90
18884;DHT22;9574;47.282;9.640;2023-07-29T11:03:13;26.60;99.90
18884;DHT22;9574;47.282;9.640;2023-07-29T11:05:46;26.90;99.90
18884;DHT22;9574;47.282;9.640;2023-07-29T11:08:21;27.00;99.90
18884;DHT22;9574;47.282;9.640;2023-07-29T11:11:06;26.90;99.90
18884;DHT22;9574;47.282;9.640;2023-07-29T11:13:34;26.50;99.90
18884;DHT22;9574;47.282;9.640;2023-07-29T11:16:02;26.40;99.90
18884;DHT22;9574;47.282;9.640;2023-07-29T11:18:32;26.20;99.90
18884;DHT22;9574;47.282;9.640;2023-07-29T11:21:00;26.30;99.90
18884;DHT22;9574;47.282;9.640;2023-07-29T11:23:32;26.50;99.90
18884;DHT22;9574;47.282;9.640;2023-07-29T11:26:00;26.60;99.90
18884;DHT22;9574;47.282;9.640;2023-07-29T11:28:27;26.80;99.90
18884;DHT22;9574;47.282;9.640;2023-07-29T11:30:55;26.90;99.90
18884;DHT22;9574;47.282;9.640;2023-07-29T11:33:23;27.20;99.90
18884;DHT22;9574;47.282;9.640;2023-07-29T11:35:52;27.30;99.90
18884;DHT22;9574;47.282;9.640;2023-07-29T11:38:21;27.50;99.90
18884;DHT22;9574;47.282;9.640;2023-07-29T11:40:55;27.70;99.90
18884;DHT22;9574;47.282;9.640;2023-07-29T11:43:22;28.00;99.90
18884;DHT22;9574;47.282;9.640;2023-07-29T11:45:49;28.30;99.90
18884;DHT22;9574;47.282;9.640;2023-07-29T11:48:17;28.50;99.90
18884;DHT22;9574;47.282;9.640;2023-07-29T11:50:45;28.70;99.90
18884;DHT22;9574;47.282;9.640;2023-07-29T11:53:14;28.70;99.90
18884;DHT22;9574;47.282;9.640;2023-07-29T11:55:41;28.70;99.90
18884;DHT22;9574;47.282;9.640;2023-07-29T11:58:08;28.80;99.90
18884;DHT22;9574;47.282;9.640;2023-07-29T12:00:41;28.70;99.90
18884;DHT22;9574;47.282;9.640;2023-07-29T12:03:08;28.50;99.90
18884;DHT22;9574;47.282;9.640;2023-07-29T12:05:36;28.00;99.90
18884;DHT22;9574;47.282;9.640;2023-07-29T12:08:03;27.60;99.90
18884;DHT22;9574;47.282;9.640;2023-07-29T12:10:32;27.30;99.90
18884;DHT22;9574;47.282;9.640;2023-07-29T12:13:02;27.10;99.90
18884;DHT22;9574;47.282;9.640;2023-07-29T12:15:30;27.00;99.90
18884;DHT22;9574;47.282;9.640;2023-07-29T12:17:58;26.70;99.90
18884;DHT22;9574;47.282;9.640;2023-07-29T12:20:26;26.40;99.90
18884;DHT22;9574;47.282;9.640;2023-07-29T12:22:54;26.10;99.90
18884;DHT22;9574;47.282;9.640;2023-07-29T12:25:22;25.90;99.90
18884;DHT22;9574;47.282;9.640;2023-07-29T12:27:50;25.70;99.90
18884;DHT22;9574;47.282;9.640;2023-07-29T12:30:20;25.70;99.90
18884;DHT22;9574;47.282;9.640;2023-07-29T12:32:47;25.60;99.90
18884;DHT22;9574;47.282;9.640;2023-07-29T12:35:15;25.40;99.90
18884;DHT22;9574;47.282;9.640;2023-07-29T12:37:42;25.30;99.90
18884;DHT22;9574;47.282;9.640;2023-07-29T12:40:21;25.20;99.90
18884;DHT22;9574;47.282;9.640;2023-07-29T12:42:50;25.00;99.90
18884;DHT22;9574;47.282;9.640;2023-07-29T12:45:18;24.80;99.90
18884;DHT22;9574;47.282;9.640;2023-07-29T12:47:45;24.60;99.90
18884;DHT22;9574;47.282;9.640;2023-07-29T12:50:12;24.40;99.90
18884;DHT22;9574;47.282;9.640;2023-07-29T12:52:39;24.20;99.90
18884;DHT22;9574;47.282;9.640;2023-07-29T12:55:06;24.20;99.90
18884;DHT22;9574;47.282;9.640;2023-07-29T12:57:39;24.20;99.90
18884;DHT22;9574;47.282;9.640;2023-07-29T13:00:09;24.10;99.90
18884;DHT22;9574;47.282;9.640;2023-07-29T13:02:36;24.00;99.90
18884;DHT22;9574;47.282;9.640;2023-07-29T13:05:04;23.80;99.90
18884;DHT22;9574;47.282;9.640;2023-07-29T13:07:31;23.10;99.90
18884;DHT22;9574;47.282;9.640;2023-07-29T13:09:58;22.50;99.90
18884;DHT22;9574;47.282;9.640;2023-07-29T13:12:25;21.90;99.90
18884;DHT22;9574;47.282;9.640;2023-07-29T13:14:52;21.50;99.90
18884;DHT22;9574;47.282;9.640;2023-07-29T13:17:21;21.20;99.90
18884;DHT22;9574;47.282;9.640;2023-07-29T13:19:48;21.00;99.90
18884;DHT22;9574;47.282;9.640;2023-07-29T13:22:15;20.90;99.90
18884;DHT22;9574;47.282;9.640;2023-07-29T13:24:42;20.90;99.90
18884;DHT22;9574;47.282;9.640;2023-07-29T13:27:09;21.10;99.90
18884;DHT22;9574;47.282;9.640;2023-07-29T13:29:36;21.20;99.90
18884;DHT22;9574;47.282;9.640;2023-07-29T13:32:04;21.20;99.90
18884;DHT22;9574;47.282;9.640;2023-07-29T13:34:32;21.00;99.90
18884;DHT22;9574;47.282;9.640;2023-07-29T13:37:00;20.90;99.90
18884;DHT22;9574;47.282;9.640;2023-07-29T13:39:27;20.80;99.90
18884;DHT22;9574;47.282;9.640;2023-07-29T13:41:54;20.90;99.90
18884;DHT22;9574;47.282;9.640;2023-07-29T13:44:21;20.80;99.90
18884;DHT22;9574;47.282;9.640;2023-07-29T13:46:48;20.50;99.90
18884;DHT22;9574;47.282;9.640;2023-07-29T13:49:15;20.50;99.90
18884;DHT22;9574;47.282;9.640;2023-07-29T13:51:43;20.50;99.90
18884;DHT22;9574;47.282;9.640;2023-07-29T13:54:10;20.60;99.90
18884;DHT22;9574;47.282;9.640;2023-07-29T13:56:37;20.60;99.90
18884;DHT22;9574;47.282;9.640;2023-07-29T13:59:04;20.80;99.90
18884;DHT22;9574;47.282;9.640;2023-07-29T14:01:31;20.90;99.90
18884;DHT22;9574;47.282;9.640;2023-07-29T14:03:58;20.90;99.90
18884;DHT22;9574;47.282;9.640;2023-07-29T14:06:25;21.10;99.90
18884;DHT22;9574;47.282;9.640;2023-07-29T14:08:53;21.20;99.90
18884;DHT22;9574;47.282;9.640;2023-07-29T14:11:20;21.30;99.90
18884;DHT22;9574;47.282;9.640;2023-07-29T14:13:47;21.20;99.90
18884;DHT22;9574;47.282;9.640;2023-07-29T14:16:14;20.90;99.90
18884;DHT22;9574;47.282;9.640;2023-07-29T14:18:41;20.70;99.90
18884;DHT22;9574;47.282;9.640;2023-07-29T14:21:08;20.60;99.90
18884;DHT22;9574;47.282;9.640;2023-07-29T14:23:35;20.50;99.90
18884;DHT22;9574;47.282;9.640;2023-07-29T14:26:03;20.30;99.90
18884;DHT22;9574;47.282;9.640;2023-07-29T14:28:30;20.10;99.90
18884;DHT22;9574;47.282;9.640;2023-07-29T14:30:57;19.90;99.90
18884;DHT22;9574;47.282;9.640;2023-07-29T14:33:24;20.00;99.90
18884;DHT22;9574;47.282;9.640;2023-07-29T14:35:52;19.90;99.90
18884;DHT22;9574;47.282;9.640;2023-07-29T14:38:19;19.80;99.90
18884;DHT22;9574;47.282;9.640;2023-07-29T14:40:48;19.70;99.90
18884;DHT22;9574;47.282;9.640;2023-07-29T14:43:17;19.60;99.90
18884;DHT22;9574;47.282;9.640;2023-07-29T14:45:44;19.40;99.90
18884;DHT22;9574;47.282;9.640;2023-07-29T14:48:11;19.30;99.90
18884;DHT22;9574;47.282;9.640;2023-07-29T14:50:38;19.20;99.90
18884;DHT22;9574;47.282;9.640;2023-07-29T14:53:05;19.30;99.90
18884;DHT22;9574;47.282;9.640;2023-07-29T14:55:32;19.40;99.90
18884;DHT22;9574;47.282;9.640;2023-07-29T14:57:59;19.40;99.90
18884;DHT22;9574;47.282;9.640;2023-07-29T15:00:28;19.40;99.90
18884;DHT22;9574;47.282;9.640;2023-07-29T15:02:55;19.20;99.90
18884;DHT22;9574;47.282;9.640;2023-07-29T15:05:22;19.20;99.90
18884;DHT22;9574;47.282;9.640;2023-07-29T15:07:49;19.10;99.90
18884;DHT22;9574;47.282;9.640;2023-07-29T15:10:17;19.10;99.90
18884;DHT22;9574;47.282;9.640;2023-07-29T15:12:44;19.10;99.90
18884;DHT22;9574;47.282;9.640;2023-07-29T15:15:12;19.10;99.90
18884;DHT22;9574;47.282;9.640;2023-07-29T15:17:40;19.00;99.90
18884;DHT22;9574;47.282;9.640;2023-07-29T15:20:08;19.00;99.90
18884;DHT22;9574;47.282;9.640;2023-07-29T15:22:35;19.20;99.90
18884;DHT22;9574;47.282;9.640;2023-07-29T15:25:02;19.30;99.90
18884;DHT22;9574;47.282;9.640;2023-07-29T15:27:29;19.70;99.90
18884;DHT22;9574;47.282;9.640;2023-07-29T15:29:57;20.10;99.90
18884;DHT22;9574;47.282;9.640;2023-07-29T15:32:23;20.30;99.90
18884;DHT22;9574;47.282;9.640;2023-07-29T15:34:52;20.30;99.90
18884;DHT22;9574;47.282;9.640;2023-07-29T15:37:19;20.20;99.90
18884;DHT22;9574;47.282;9.640;2023-07-29T15:39:46;20.20;99.90
18884;DHT22;9574;47.282;9.640;2023-07-29T15:42:13;20.50;99.90
18884;DHT22;9574;47.282;9.640;2023-07-29T15:44:40;20.30;99.90
18884;DHT22;9574;47.282;9.640;2023-07-29T15:47:07;20.10;99.90
18884;DHT22;9574;47.282;9.640;2023-07-29T15:49:34;20.10;99.90
18884;DHT22;9574;47.282;9.640;2023-07-29T15:52:02;19.90;99.90